sensor_id;sensor_type;location;lat;lon;timestamp;pressure;altitude;pressure_sealevel;temperature;humidity
13732;BME280;6937;56.096;12.664;2023-01-31T00:00:47;100300.63;;;4.13;100.00
13732;BME280;6937;56.096;12.664;2023-01-31T00:03:12;100305.03;;;4.13;100.00
13732;BME280;6937;56.096;12.664;2023-01-31T00:05:37;100306.00;;;4.12;100.00
13732;BME280;6937;56.096;12.664;2023-01-31T00:08:03;100298.81;;;4.14;100.00
13732;BME280;6937;56.096;12.664;2023-01-31T00:10:28;100314.78;;;4.12;100.00
13732;BME280;6937;56.096;12.664;2023-01-31T00:12:54;100302.66;;;4.08;100.00
13732;BME280;6937;56.096;12.664;2023-01-31T00:15:19;100314.78;;;4.12;100.00
13732;BME280;6937;56.096;12.664;2023-01-31T00:17:44;100310.34;;;4.13;100.00
13732;BME280;6937;56.096;12.664;2023-01-31T00:20:11;100320.91;;;4.13;100.00
13732;BME280;6937;56.096;12.664;2023-01-31T00:22:36;100321.69;;;4.15;100.00
13732;BME280;6937;56.096;12.664;2023-01-31T00:25:02;100320.09;;;4.12;100.00
13732;BME280;6937;56.096;12.664;2023-01-31T00:27:27;100327.06;;;4.13;100.00
13732;BME280;6937;56.096;12.664;2023-01-31T00:29:53;100328.84;;;4.13;100.00
13732;BME280;6937;56.096;12.664;2023-01-31T00:32:18;100325.44;;;4.11;100.00
13732;BME280;6937;56.096;12.664;2023-01-31T00:34:44;100325.44;;;4.11;100.00
13732;BME280;6937;56.096;12.664;2023-01-31T00:37:09;100322.97;;;4.08;100.00
13732;BME280;6937;56.096;12.664;2023-01-31T00:39:34;100320.38;;;4.06;100.00
13732;BME280;6937;56.096;12.664;2023-01-31T00:42:00;100339.69;;;4.08;100.00
13732;BME280;6937;56.096;12.664;2023-01-31T00:44:25;100329.19;;;4.07;100.00
13732;BME280;6937;56.096;12.664;2023-01-31T00:46:50;100349.41;;;4.08;100.00
13732;BME280;6937;56.096;12.664;2023-01-31T00:49:16;100348.63;;;4.06;100.00
13732;BME280;6937;56.096;12.664;2023-01-31T00:51:41;100344.13;;;4.08;100.00
13732;BME280;6937;56.096;12.664;2023-01-31T00:54:08;100340.50;;;4.09;100.00
13732;BME280;6937;56.096;12.664;2023-01-31T00:56:34;100353.84;;;4.07;100.00
13732;BME280;6937;56.096;12.664;2023-01-31T00:58:59;100345.09;;;4.05;100.00
13732;BME280;6937;56.096;12.664;2023-01-31T01:01:27;100337.28;;;4.04;100.00
13732;BME280;6937;56.096;12.664;2023-01-31T01:03:54;100330.28;;;4.03;100.00
13732;BME280;6937;56.096;12.664;2023-01-31T01:06:19;100325.91;;;4.02;100.00
13732;BME280;6937;56.096;12.664;2023-01-31T01:08:45;100332.16;;;4.01;100.00
13732;BME280;6937;56.096;12.664;2023-01-31T01:11:16;100334.94;;;3.98;100.00
13732;BME280;6937;56.096;12.664;2023-01-31T01:13:42;100327.78;;;4.00;100.00
13732;BME280;6937;56.096;12.664;2023-01-31T01:16:12;100309.47;;;3.97;100.00
13732;BME280;6937;56.096;12.664;2023-01-31T01:18:38;100326.06;;;3.99;100.00
13732;BME280;6937;56.096;12.664;2023-01-31T01:21:09;100330.44;;;4.00;100.00
13732;BME280;6937;56.096;12.664;2023-01-31T01:23:36;100326.94;;;3.99;100.00
13732;BME280;6937;56.096;12.664;2023-01-31T01:26:02;100329.75;;;3.96;100.00
13732;BME280;6937;56.096;12.664;2023-01-31T01:28:32;100326.19;;;3.97;100.00
13732;BME280;6937;56.096;12.664;2023-01-31T01:30:58;100333.41;;;3.94;100.00
13732;BME280;6937;56.096;12.664;2023-01-31T01:33:23;100346.53;;;3.95;100.00
13732;BME280;6937;56.096;12.664;2023-01-31T01:35:49;100344.91;;;3.93;100.00
13732;BME280;6937;56.096;12.664;2023-01-31T01:38:14;100373.06;;;3.94;100.00
13732;BME280;6937;56.096;12.664;2023-01-31T01:40:39;100389.75;;;3.94;100.00
13732;BME280;6937;56.096;12.664;2023-01-31T01:43:05;100403.94;;;3.93;100.00
13732;BME280;6937;56.096;12.664;2023-01-31T01:45:30;100401.34;;;3.92;100.00
13732;BME280;6937;56.096;12.664;2023-01-31T01:47:59;100396.13;;;3.90;100.00
13732;BME280;6937;56.096;12.664;2023-01-31T01:50:31;100416.50;;;3.88;100.00
13732;BME280;6937;56.096;12.664;2023-01-31T01:53:11;100420.88;;;3.89;100.00
13732;BME280;6937;56.096;12.664;2023-01-31T01:55:46;100413.88;;;3.88;100.00
13732;BME280;6937;56.096;12.664;2023-01-31T01:58:17;100419.09;;;3.89;100.00
13732;BME280;6937;56.096;12.664;2023-01-31T02:00:45;100419.91;;;3.90;100.00
13732;BME280;6937;56.096;12.664;2023-01-31T02:03:11;100417.53;;;3.85;100.00
13732;BME280;6937;56.096;12.664;2023-01-31T02:05:43;100420.94;;;3.87;100.00
13732;BME280;6937;56.096;12.664;2023-01-31T02:08:11;100433.44;;;3.84;100.00
13732;BME280;6937;56.096;12.664;2023-01-31T02:10:54;100432.53;;;3.85;100.00
13732;BME280;6937;56.096;12.664;2023-01-31T02:13:20;100447.22;;;3.90;100.00
13732;BME280;6937;56.096;12.664;2023-01-31T02:15:46;100442.88;;;3.89;100.00
13732;BME280;6937;56.096;12.664;2023-01-31T02:18:12;100445.53;;;3.89;100.00
13732;BME280;6937;56.096;12.664;2023-01-31T02:26:32;100428.88;;;3.87;100.00
13732;BME280;6937;56.096;12.664;2023-01-31T02:29:39;100428.88;;;3.87;100.00
13732;BME280;6937;56.096;12.664;2023-01-31T02:37:42;100455.25;;;3.89;100.00
13732;BME280;6937;56.096;12.664;2023-01-31T02:40:35;100442.78;;;3.91;100.00
13732;BME280;6937;56.096;12.664;2023-01-31T02:45:39;100451.63;;;3.90;100.00
13732;BME280;6937;56.096;12.664;2023-01-31T02:51:03;100447.31;;;3.89;100.00
13732;BME280;6937;56.096;12.664;2023-01-31T02:53:36;100456.00;;;3.91;100.00
13732;BME280;6937;56.096;12.664;2023-01-31T02:56:19;100445.38;;;3.93;100.00
13732;BME280;6937;56.096;12.664;2023-01-31T02:59:15;100453.38;;;3.91;100.00
13732;BME280;6937;56.096;12.664;2023-01-31T03:01:47;100453.47;;;3.89;100.00
13732;BME280;6937;56.096;12.664;2023-01-31T03:04:15;100479.94;;;3.88;100.00
13732;BME280;6937;56.096;12.664;2023-01-31T03:06:54;100486.97;;;3.89;100.00
13732;BME280;6937;56.096;12.664;2023-01-31T03:09:28;100486.25;;;3.85;100.00
13732;BME280;6937;56.096;12.664;2023-01-31T03:17:50;100478.53;;;3.81;100.00
13732;BME280;6937;56.096;12.664;2023-01-31T03:20:57;100478.59;;;3.79;100.00
13732;BME280;6937;56.096;12.664;2023-01-31T03:23:19;100483.75;;;3.82;100.00
13732;BME280;6937;56.096;12.664;2023-01-31T03:25:47;100490.13;;;3.78;100.00
13732;BME280;6937;56.096;12.664;2023-01-31T03:28:17;100496.41;;;3.76;100.00
13732;BME280;6937;56.096;12.664;2023-01-31T03:30:48;100510.56;;;3.75;100.00
13732;BME280;6937;56.096;12.664;2023-01-31T03:33:24;100516.94;;;3.71;100.00
13732;BME280;6937;56.096;12.664;2023-01-31T03:38:33;100512.56;;;3.70;100.00
13732;BME280;6937;56.096;12.664;2023-01-31T03:41:20;100510.78;;;3.70;100.00
13732;BME280;6937;56.096;12.664;2023-01-31T03:43:58;100515.22;;;3.70;100.00
13732;BME280;6937;56.096;12.664;2023-01-31T03:46:33;100502.28;;;3.64;100.00
13732;BME280;6937;56.096;12.664;2023-01-31T03:49:03;100515.44;;;3.65;100.00
13732;BME280;6937;56.096;12.664;2023-01-31T03:51:36;100511.88;;;3.66;100.00
13732;BME280;6937;56.096;12.664;2023-01-31T03:54:08;100511.88;;;3.66;100.00
13732;BME280;6937;56.096;12.664;2023-01-31T03:56:49;100509.28;;;3.65;100.00
13732;BME280;6937;56.096;12.664;2023-01-31T03:59:22;100507.56;;;3.64;100.00
13732;BME280;6937;56.096;12.664;2023-01-31T04:01:52;100508.41;;;3.64;100.00
13732;BME280;6937;56.096;12.664;2023-01-31T04:04:27;100506.72;;;3.63;100.00
13732;BME280;6937;56.096;12.664;2023-01-31T04:06:54;100517.31;;;3.63;100.00
13732;BME280;6937;56.096;12.664;2023-01-31T04:09:20;100509.59;;;3.59;100.00
13732;BME280;6937;56.096;12.664;2023-01-31T04:11:47;100506.03;;;3.60;100.00
13732;BME280;6937;56.096;12.664;2023-01-31T04:14:13;100497.28;;;3.58;100.00
13732;BME280;6937;56.096;12.664;2023-01-31T04:16:39;100507.09;;;3.56;100.00
13732;BME280;6937;56.096;12.664;2023-01-31T04:19:04;100511.38;;;3.58;100.00
13732;BME280;6937;56.096;12.664;2023-01-31T04:21:30;100503.59;;;3.55;100.00
13732;BME280;6937;56.096;12.664;2023-01-31T04:23:55;100505.44;;;3.53;100.00
13732;BME280;6937;56.096;12.664;2023-01-31T04:26:21;100510.97;;;3.49;100.00
13732;BME280;6937;56.096;12.664;2023-01-31T04:28:46;100521.59;;;3.47;100.00
13732;BME280;6937;56.096;12.664;2023-01-31T04:31:12;100509.31;;;3.46;100.00
13732;BME280;6937;56.096;12.664;2023-01-31T04:33:37;100513.00;;;3.42;100.00
13732;BME280;6937;56.096;12.664;2023-01-31T04:36:03;100509.44;;;3.43;100.00
13732;BME280;6937;56.096;12.664;2023-01-31T04:38:28;100516.72;;;3.38;100.00
13732;BME280;6937;56.096;12.664;2023-01-31T04:40:54;100515.75;;;3.40;100.00
13732;BME280;6937;56.096;12.664;2023-01-31T04:43:19;100519.25;;;3.41;100.00
13732;BME280;6937;56.096;12.664;2023-01-31T04:45:44;100521.09;;;3.39;100.00
13732;BME280;6937;56.096;12.664;2023-01-31T04:48:10;100526.31;;;3.40;100.00
13732;BME280;6937;56.096;12.664;2023-01-31T04:50:35;100514.78;;;3.41;100.00
13732;BME280;6937;56.096;12.664;2023-01-31T04:53:00;100537.59;;;3.44;100.00
13732;BME280;6937;56.096;12.664;2023-01-31T04:55:26;100512.94;;;3.44;100.00
13732;BME280;6937;56.096;12.664;2023-01-31T04:57:52;100516.50;;;3.42;100.00
13732;BME280;6937;56.096;12.664;2023-01-31T05:00:18;100513.00;;;3.42;100.00
13732;BME280;6937;56.096;12.664;2023-01-31T05:02:43;100516.97;;;3.33;100.00
13732;BME280;6937;56.096;12.664;2023-01-31T05:05:09;100526.53;;;3.36;100.00
13732;BME280;6937;56.096;12.664;2023-01-31T05:07:37;100527.66;;;3.30;100.00
13732;BME280;6937;56.096;12.664;2023-01-31T05:10:03;100525.00;;;3.30;100.00
13732;BME280;6937;56.096;12.664;2023-01-31T05:12:28;100538.91;;;3.34;100.00
13732;BME280;6937;56.096;12.664;2023-01-31T05:14:54;100536.22;;;3.35;100.00
13732;BME280;6937;56.096;12.664;2023-01-31T05:17:19;100540.59;;;3.36;100.00
13732;BME280;6937;56.096;12.664;2023-01-31T05:19:51;100540.50;;;3.38;100.00
13732;BME280;6937;56.096;12.664;2023-01-31T05:22:16;100540.59;;;3.36;100.00
13732;BME280;6937;56.096;12.664;2023-01-31T05:24:46;100527.38;;;3.36;100.00
13732;BME280;6937;56.096;12.664;2023-01-31T05:27:12;100534.44;;;3.36;100.00
13732;BME280;6937;56.096;12.664;2023-01-31T05:29:37;100528.28;;;3.35;100.00
13732;BME280;6937;56.096;12.664;2023-01-31T05:32:03;100523.00;;;3.35;100.00
13732;BME280;6937;56.096;12.664;2023-01-31T05:34:28;100527.28;;;3.38;100.00
13732;BME280;6937;56.096;12.664;2023-01-31T05:36:57;100523.78;;;3.37;100.00
13732;BME280;6937;56.096;12.664;2023-01-31T05:39:22;100533.28;;;3.41;100.00
13732;BME280;6937;56.096;12.664;2023-01-31T05:41:47;100525.25;;;3.45;100.00
13732;BME280;6937;56.096;12.664;2023-01-31T05:44:13;100519.97;;;3.45;100.00
13732;BME280;6937;56.096;12.664;2023-01-31T05:46:40;100510.22;;;3.45;100.00
13732;BME280;6937;56.096;12.664;2023-01-31T05:49:06;100518.94;;;3.47;100.00
13732;BME280;6937;56.096;12.664;2023-01-31T05:51:31;100515.59;;;3.44;100.00
13732;BME280;6937;56.096;12.664;2023-01-31T05:53:57;100518.09;;;3.47;100.00
13732;BME280;6937;56.096;12.664;2023-01-31T05:56:22;100523.31;;;3.48;100.00
13732;BME280;6937;56.096;12.664;2023-01-31T05:58:48;100517.94;;;3.50;100.00
13732;BME280;6937;56.096;12.664;2023-01-31T06:01:26;100526.72;;;3.50;100.00
13732;BME280;6937;56.096;12.664;2023-01-31T06:03:52;100522.44;;;3.48;100.00
13732;BME280;6937;56.096;12.664;2023-01-31T06:06:18;100515.44;;;3.47;100.00
13732;BME280;6937;56.096;12.664;2023-01-31T06:08:43;100517.88;;;3.51;100.00
13732;BME280;6937;56.096;12.664;2023-01-31T06:11:10;100520.44;;;3.53;100.00
13732;BME280;6937;56.096;12.664;2023-01-31T06:13:37;100507.22;;;3.53;100.00
13732;BME280;6937;56.096;12.664;2023-01-31T06:16:03;100513.16;;;3.58;100.00
13732;BME280;6937;56.096;12.664;2023-01-31T06:18:29;100518.28;;;3.61;100.00
13732;BME280;6937;56.096;12.664;2023-01-31T06:20:54;100519.84;;;3.65;100.00
13732;BME280;6937;56.096;12.664;2023-01-31T06:23:20;100508.31;;;3.67;100.00
13732;BME280;6937;56.096;12.664;2023-01-31T06:25:49;100497.72;;;3.67;100.00
13732;BME280;6937;56.096;12.664;2023-01-31T06:28:16;100505.56;;;3.69;100.00
13732;BME280;6937;56.096;12.664;2023-01-31T06:30:41;100507.34;;;3.68;100.00
13732;BME280;6937;56.096;12.664;2023-01-31T06:33:06;100524.06;;;3.69;100.00
13732;BME280;6937;56.096;12.664;2023-01-31T06:35:33;100521.50;;;3.67;100.00
13732;BME280;6937;56.096;12.664;2023-01-31T06:37:58;100536.56;;;3.65;100.00
13732;BME280;6937;56.096;12.664;2023-01-31T06:40:24;100519.00;;;3.64;100.00
13732;BME280;6937;56.096;12.664;2023-01-31T06:42:49;100520.00;;;3.62;100.00
13732;BME280;6937;56.096;12.664;2023-01-31T06:45:14;100539.56;;;3.58;100.00
13732;BME280;6937;56.096;12.664;2023-01-31T06:47:40;100520.38;;;3.54;100.00
13732;BME280;6937;56.096;12.664;2023-01-31T06:50:05;100513.50;;;3.50;100.00
13732;BME280;6937;56.096;12.664;2023-01-31T06:52:31;100507.38;;;3.50;100.00
13732;BME280;6937;56.096;12.664;2023-01-31T06:54:56;100503.75;;;3.52;100.00
13732;BME280;6937;56.096;12.664;2023-01-31T06:57:21;100508.16;;;3.52;100.00
13732;BME280;6937;56.096;12.664;2023-01-31T06:59:47;100516.00;;;3.53;100.00
13732;BME280;6937;56.096;12.664;2023-01-31T07:02:12;100513.31;;;3.55;100.00
13732;BME280;6937;56.096;12.664;2023-01-31T07:04:37;100519.59;;;3.52;100.00
13732;BME280;6937;56.096;12.664;2023-01-31T07:07:03;100510.66;;;3.55;100.00
13732;BME280;6937;56.096;12.664;2023-01-31T07:09:28;100504.47;;;3.56;100.00
13732;BME280;6937;56.096;12.664;2023-01-31T07:11:54;100504.50;;;3.54;100.00
13732;BME280;6937;56.096;12.664;2023-01-31T07:14:19;100508.88;;;3.55;100.00
13732;BME280;6937;56.096;12.664;2023-01-31T07:16:44;100502.59;;;3.58;100.00
13732;BME280;6937;56.096;12.664;2023-01-31T07:19:10;100487.53;;;3.60;100.00
13732;BME280;6937;56.096;12.664;2023-01-31T07:21:35;100490.06;;;3.61;100.00
13732;BME280;6937;56.096;12.664;2023-01-31T07:24:01;100480.31;;;3.63;100.00
13732;BME280;6937;56.096;12.664;2023-01-31T07:26:27;100483.88;;;3.62;100.00
13732;BME280;6937;56.096;12.664;2023-01-31T07:28:53;100484.88;;;3.60;100.00
13732;BME280;6937;56.096;12.664;2023-01-31T07:31:18;100491.16;;;3.57;100.00
13732;BME280;6937;56.096;12.664;2023-01-31T07:33:44;100483.31;;;3.56;100.00
13732;BME280;6937;56.096;12.664;2023-01-31T07:36:12;100471.88;;;3.55;100.00
13732;BME280;6937;56.096;12.664;2023-01-31T07:38:38;100474.44;;;3.57;100.00
13732;BME280;6937;56.096;12.664;2023-01-31T07:41:04;100470.88;;;3.58;100.00
13732;BME280;6937;56.096;12.664;2023-01-31T07:43:31;100469.03;;;3.60;100.00
13732;BME280;6937;56.096;12.664;2023-01-31T07:45:57;100462.78;;;3.61;100.00
13732;BME280;6937;56.096;12.664;2023-01-31T07:48:22;100471.44;;;3.64;100.00
13732;BME280;6937;56.096;12.664;2023-01-31T07:50:52;100456.28;;;3.68;100.00
13732;BME280;6937;56.096;12.664;2023-01-31T07:53:21;100464.16;;;3.69;100.00
13732;BME280;6937;56.096;12.664;2023-01-31T07:55:47;100457.84;;;3.72;100.00
13732;BME280;6937;56.096;12.664;2023-01-31T07:58:14;100450.72;;;3.74;100.00
13732;BME280;6937;56.096;12.664;2023-01-31T08:00:40;100445.44;;;3.74;100.00
13732;BME280;6937;56.096;12.664;2023-01-31T08:03:26;100431.28;;;3.75;100.00
13732;BME280;6937;56.096;12.664;2023-01-31T08:06:03;100429.25;;;3.80;100.00
13732;BME280;6937;56.096;12.664;2023-01-31T08:08:30;100438.97;;;3.79;100.00
13732;BME280;6937;56.096;12.664;2023-01-31T08:10:56;100433.69;;;3.79;100.00
13732;BME280;6937;56.096;12.664;2023-01-31T08:13:21;100427.41;;;3.82;100.00
13732;BME280;6937;56.096;12.664;2023-01-31T08:15:50;100430.97;;;3.81;100.00
13732;BME280;6937;56.096;12.664;2023-01-31T08:18:15;100437.03;;;3.83;100.00
13732;BME280;6937;56.096;12.664;2023-01-31T08:20:41;100420.25;;;3.84;100.00
13732;BME280;6937;56.096;12.664;2023-01-31T08:23:06;100421.16;;;3.83;100.00
13732;BME280;6937;56.096;12.664;2023-01-31T08:25:31;100428.34;;;3.81;100.00
13732;BME280;6937;56.096;12.664;2023-01-31T08:27:57;100429.94;;;3.83;100.00
13732;BME280;6937;56.096;12.664;2023-01-31T08:30:23;100422.03;;;3.83;100.00
13732;BME280;6937;56.096;12.664;2023-01-31T08:32:48;100417.44;;;3.87;100.00
13732;BME280;6937;56.096;12.664;2023-01-31T08:35:13;100407.66;;;3.89;100.00
13732;BME280;6937;56.096;12.664;2023-01-31T08:37:39;100402.53;;;3.86;100.00
13732;BME280;6937;56.096;12.664;2023-01-31T08:40:05;100401.56;;;3.87;100.00
13732;BME280;6937;56.096;12.664;2023-01-31T08:42:31;100389.22;;;3.87;100.00
13732;BME280;6937;56.096;12.664;2023-01-31T08:44:56;100389.06;;;3.90;100.00
13732;BME280;6937;56.096;12.664;2023-01-31T08:47:21;100383.72;;;3.92;100.00
13732;BME280;6937;56.096;12.664;2023-01-31T08:49:47;100382.69;;;3.95;100.00
13732;BME280;6937;56.096;12.664;2023-01-31T08:52:12;100376.47;;;3.96;100.00
13732;BME280;6937;56.096;12.664;2023-01-31T08:54:37;100380.84;;;3.97;100.00
13732;BME280;6937;56.096;12.664;2023-01-31T08:57:03;100379.81;;;3.99;100.00
13732;BME280;6937;56.096;12.664;2023-01-31T08:59:28;100379.81;;;3.99;100.00
13732;BME280;6937;56.096;12.664;2023-01-31T09:01:53;100364.00;;;3.98;100.00
13732;BME280;6937;56.096;12.664;2023-01-31T09:04:19;100371.72;;;4.02;100.00
13732;BME280;6937;56.096;12.664;2023-01-31T09:06:44;100368.22;;;4.02;100.00
13732;BME280;6937;56.096;12.664;2023-01-31T09:09:09;100377.00;;;4.02;100.00
13732;BME280;6937;56.096;12.664;2023-01-31T09:11:35;100374.47;;;4.01;100.00
13732;BME280;6937;56.096;12.664;2023-01-31T09:14:00;100362.31;;;3.97;100.00
13732;BME280;6937;56.096;12.664;2023-01-31T09:16:26;100351.97;;;3.92;100.00
13732;BME280;6937;56.096;12.664;2023-01-31T09:18:52;100341.75;;;3.86;100.00
13732;BME280;6937;56.096;12.664;2023-01-31T09:21:19;100342.88;;;3.80;100.00
13732;BME280;6937;56.096;12.664;2023-01-31T09:23:46;100332.50;;;3.77;100.00
13732;BME280;6937;56.096;12.664;2023-01-31T09:26:12;100336.06;;;3.76;100.00
13732;BME280;6937;56.096;12.664;2023-01-31T09:28:38;100329.31;;;3.71;100.00
13732;BME280;6937;56.096;12.664;2023-01-31T09:31:09;100318.09;;;3.66;100.00
13732;BME280;6937;56.096;12.664;2023-01-31T09:33:35;100324.47;;;3.62;100.00
13732;BME280;6937;56.096;12.664;2023-01-31T09:36:09;100319.34;;;3.59;100.00
13732;BME280;6937;56.096;12.664;2023-01-31T09:38:35;100319.34;;;3.59;100.00
13732;BME280;6937;56.096;12.664;2023-01-31T09:43:55;100300.22;;;3.54;100.00
13732;BME280;6937;56.096;12.664;2023-01-31T09:46:27;100282.59;;;3.54;100.00
13732;BME280;6937;56.096;12.664;2023-01-31T09:48:58;100282.59;;;3.54;100.00
13732;BME280;6937;56.096;12.664;2023-01-31T09:51:26;100276.47;;;3.54;100.00
13732;BME280;6937;56.096;12.664;2023-01-31T09:53:54;100277.38;;;3.53;100.00
13732;BME280;6937;56.096;12.664;2023-01-31T09:56:33;100266.97;;;3.50;100.00
13732;BME280;6937;56.096;12.664;2023-01-31T09:59:09;100265.28;;;3.49;100.00
13732;BME280;6937;56.096;12.664;2023-01-31T10:04:54;100250.75;;;3.40;100.00
13732;BME280;6937;56.096;12.664;2023-01-31T10:07:31;100244.78;;;3.36;100.00
13732;BME280;6937;56.096;12.664;2023-01-31T10:12:58;100215.09;;;3.31;100.00
13732;BME280;6937;56.096;12.664;2023-01-31T10:15:37;100206.84;;;3.37;100.00
13732;BME280;6937;56.096;12.664;2023-01-31T10:18:12;100193.34;;;3.44;100.00
13732;BME280;6937;56.096;12.664;2023-01-31T10:20:49;100187.97;;;3.45;100.00
13732;BME280;6937;56.096;12.664;2023-01-31T10:25:54;100166.59;;;3.50;100.00
13732;BME280;6937;56.096;12.664;2023-01-31T10:28:33;100166.13;;;3.59;100.00
13732;BME280;6937;56.096;12.664;2023-01-31T10:36:33;100129.91;;;3.61;100.00
13732;BME280;6937;56.096;12.664;2023-01-31T10:39:15;100118.63;;;3.57;100.00
13732;BME280;6937;56.096;12.664;2023-01-31T10:44:53;100110.03;;;3.54;100.00
13732;BME280;6937;56.096;12.664;2023-01-31T10:47:23;100099.56;;;3.52;100.00
13732;BME280;6937;56.096;12.664;2023-01-31T10:49:51;100091.47;;;3.55;100.00
13732;BME280;6937;56.096;12.664;2023-01-31T10:55:01;100067.69;;;3.55;100.00
13732;BME280;6937;56.096;12.664;2023-01-31T10:57:28;100057.97;;;3.56;100.00
13732;BME280;6937;56.096;12.664;2023-01-31T10:59:54;100046.47;;;3.57;100.00
13732;BME280;6937;56.096;12.664;2023-01-31T11:02:20;100032.16;;;3.61;100.00
13732;BME280;6937;56.096;12.664;2023-01-31T11:04:50;100029.44;;;3.62;100.00
13732;BME280;6937;56.096;12.664;2023-01-31T11:07:16;100018.84;;;3.62;100.00
13732;BME280;6937;56.096;12.664;2023-01-31T11:09:45;100005.47;;;3.65;100.00
13732;BME280;6937;56.096;12.664;2023-01-31T11:12:12;100008.03;;;3.67;100.00
13732;BME280;6937;56.096;12.664;2023-01-31T11:14:37;100007.69;;;3.73;100.00
13732;BME280;6937;56.096;12.664;2023-01-31T11:17:07;100000.69;;;3.72;100.00
13732;BME280;6937;56.096;12.664;2023-01-31T11:19:35;100004.19;;;3.72;100.00
13732;BME280;6937;56.096;12.664;2023-01-31T11:22:03;99983.91;;;3.73;100.00
13732;BME280;6937;56.096;12.664;2023-01-31T11:24:32;99982.78;;;3.77;100.00
13732;BME280;6937;56.096;12.664;2023-01-31T11:29:33;99947.59;;;3.76;100.00
13732;BME280;6937;56.096;12.664;2023-01-31T11:32:01;99942.91;;;3.81;100.00
13732;BME280;6937;56.096;12.664;2023-01-31T11:34:29;99934.19;;;3.79;100.00
13732;BME280;6937;56.096;12.664;2023-01-31T11:37:15;99932.66;;;3.75;100.00
13732;BME280;6937;56.096;12.664;2023-01-31T11:39:41;99920.31;;;3.76;100.00
13732;BME280;6937;56.096;12.664;2023-01-31T11:42:18;99903.69;;;3.74;100.00
13732;BME280;6937;56.096;12.664;2023-01-31T11:47:41;99876.34;;;3.75;100.00
13732;BME280;6937;56.096;12.664;2023-01-31T11:50:21;99852.66;;;3.73;100.00
13732;BME280;6937;56.096;12.664;2023-01-31T11:52:56;99852.66;;;3.73;100.00
13732;BME280;6937;56.096;12.664;2023-01-31T11:55:22;99837.53;;;3.75;100.00
13732;BME280;6937;56.096;12.664;2023-01-31T11:57:55;99820.66;;;3.78;100.00
13732;BME280;6937;56.096;12.664;2023-01-31T12:00:23;99804.72;;;3.79;100.00
13732;BME280;6937;56.096;12.664;2023-01-31T12:03:00;99791.31;;;3.82;100.00
13732;BME280;6937;56.096;12.664;2023-01-31T12:05:38;99786.13;;;3.81;100.00
13732;BME280;6937;56.096;12.664;2023-01-31T12:08:05;99765.00;;;3.81;100.00
13732;BME280;6937;56.096;12.664;2023-01-31T12:10:49;99752.34;;;3.86;100.00
13732;BME280;6937;56.096;12.664;2023-01-31T12:13:20;99746.03;;;3.88;100.00
13732;BME280;6937;56.096;12.664;2023-01-31T12:15:52;99740.53;;;3.92;100.00
13732;BME280;6937;56.096;12.664;2023-01-31T12:24:17;99704.84;;;3.99;100.00
13732;BME280;6937;56.096;12.664;2023-01-31T12:26:47;99702.88;;;4.02;100.00
13732;BME280;6937;56.096;12.664;2023-01-31T12:32:06;99681.53;;;4.05;100.00
13732;BME280;6937;56.096;12.664;2023-01-31T12:42:59;99635.81;;;4.17;100.00
13732;BME280;6937;56.096;12.664;2023-01-31T12:45:40;99631.28;;;4.19;100.00
13732;BME280;6937;56.096;12.664;2023-01-31T12:54:20;99576.63;;;4.32;100.00
13732;BME280;6937;56.096;12.664;2023-01-31T12:59:56;99556.69;;;4.41;100.00
13732;BME280;6937;56.096;12.664;2023-01-31T13:02:31;99559.75;;;4.48;100.00
13732;BME280;6937;56.096;12.664;2023-01-31T13:10:37;99514.84;;;4.85;100.00
13732;BME280;6937;56.096;12.664;2023-01-31T13:13:05;99503.41;;;4.98;100.00
13732;BME280;6937;56.096;12.664;2023-01-31T13:15:49;99465.34;;;5.11;100.00
13732;BME280;6937;56.096;12.664;2023-01-31T13:18:16;99470.97;;;5.19;100.00
13732;BME280;6937;56.096;12.664;2023-01-31T13:20:56;99457.91;;;5.29;100.00
13732;BME280;6937;56.096;12.664;2023-01-31T13:23:39;99443.78;;;5.41;100.00
13732;BME280;6937;56.096;12.664;2023-01-31T13:26:21;99436.34;;;5.46;100.00
13732;BME280;6937;56.096;12.664;2023-01-31T13:31:41;99409.91;;;5.57;100.00
13732;BME280;6937;56.096;12.664;2023-01-31T13:34:16;99388.88;;;5.67;100.00
13732;BME280;6937;56.096;12.664;2023-01-31T13:37:04;99370.50;;;5.76;100.00
13732;BME280;6937;56.096;12.664;2023-01-31T13:39:38;99351.22;;;5.85;100.00
13732;BME280;6937;56.096;12.664;2023-01-31T13:42:04;99345.28;;;5.95;100.00
13732;BME280;6937;56.096;12.664;2023-01-31T13:44:29;99348.31;;;6.01;100.00
13732;BME280;6937;56.096;12.664;2023-01-31T13:49:37;99357.72;;;6.05;100.00
13732;BME280;6937;56.096;12.664;2023-01-31T13:52:13;99343.25;;;6.09;100.00
13732;BME280;6937;56.096;12.664;2023-01-31T13:54:45;99338.81;;;6.10;100.00
13732;BME280;6937;56.096;12.664;2023-01-31T13:57:34;99332.31;;;6.14;100.00
13732;BME280;6937;56.096;12.664;2023-01-31T14:00:29;99322.41;;;6.16;100.00
13732;BME280;6937;56.096;12.664;2023-01-31T14:03:04;99301.09;;;6.17;100.00
13732;BME280;6937;56.096;12.664;2023-01-31T14:10:53;99286.63;;;6.32;100.00
13732;BME280;6937;56.096;12.664;2023-01-31T14:13:26;99271.31;;;6.36;100.00
13732;BME280;6937;56.096;12.664;2023-01-31T14:15:53;99274.06;;;6.46;100.00
13732;BME280;6937;56.096;12.664;2023-01-31T14:18:36;99262.13;;;6.51;100.00
13732;BME280;6937;56.096;12.664;2023-01-31T14:23:58;99214.81;;;6.56;100.00
13732;BME280;6937;56.096;12.664;2023-01-31T14:26:53;99213.88;;;6.57;100.00
13732;BME280;6937;56.096;12.664;2023-01-31T14:29:22;99207.59;;;6.58;100.00
13732;BME280;6937;56.096;12.664;2023-01-31T14:31:49;99199.28;;;6.63;100.00
13732;BME280;6937;56.096;12.664;2023-01-31T14:34:27;99191.31;;;6.63;100.00
13732;BME280;6937;56.096;12.664;2023-01-31T14:40:16;99177.78;;;6.66;100.00
13732;BME280;6937;56.096;12.664;2023-01-31T14:59:33;99167.16;;;6.66;100.00
13732;BME280;6937;56.096;12.664;2023-01-31T15:05:00;99148.09;;;6.61;100.00